Time,TemperatureF,DewpointF,PressureIn,WindDirection,WindDirectionDegrees,WindSpeedMPH,WindSpeedGustMPH,Humidity,HourlyPrecipIn,Conditions,Clouds,dailyrainin,SoftwareType,DateUTC
2013-11-11 00:11:00,38.5,29.5,30.28,NNE,22,0.0,-999.0,70,0.00,,,0.00,open2300 v1.10,2013-11-11 05:11:00,
2013-11-11 00:21:00,38.3,29.7,30.28,NNE,22,0.0,-999.0,71,0.00,,,0.00,open2300 v1.10,2013-11-11 05:21:00,
2013-11-11 00:31:00,37.9,29.4,30.28,NNE,22,0.0,-999.0,71,0.00,,,0.00,open2300 v1.10,2013-11-11 05:31:00,
2013-11-11 00:41:00,37.2,29.0,30.28,NNE,22,0.0,-999.0,72,0.00,,,0.00,open2300 v1.10,2013-11-11 05:41:00,
2013-11-11 00:51:00,37.2,29.0,30.28,North,0,0.0,-999.0,72,0.00,,,0.00,open2300 v1.10,2013-11-11 05:51:00,
2013-11-11 01:01:00,37.2,29.4,30.28,NNE,22,0.0,-999.0,73,0.00,,,0.00,open2300 v1.10,2013-11-11 06:01:00,
2013-11-11 01:11:00,37.2,29.4,30.28,NNE,22,0.0,-999.0,73,0.00,,,0.00,open2300 v1.10,2013-11-11 06:11:00,
2013-11-11 01:21:00,37.2,29.4,30.27,NNE,22,0.0,-999.0,73,0.00,,,0.00,open2300 v1.10,2013-11-11 06:21:00,
2013-11-11 01:31:00,37.2,29.4,30.27,NNE,22,0.0,-999.0,73,0.00,,,0.00,open2300 v1.10,2013-11-11 06:31:00,
2013-11-11 01:41:00,37.0,29.2,30.26,NNE,22,0.0,-999.0,73,0.00,,,0.00,open2300 v1.10,2013-11-11 06:41:00,
2013-11-11 01:51:00,37.0,29.5,30.25,NNE,22,0.0,-999.0,74,0.00,,,0.00,open2300 v1.10,2013-11-11 06:51:00,
2013-11-11 02:01:00,36.9,29.3,30.25,NNE,22,0.0,-999.0,74,0.00,,,0.00,open2300 v1.10,2013-11-11 07:01:00,
2013-11-11 02:11:00,36.9,29.3,30.25,NNE,22,0.0,-999.0,74,0.00,,,0.00,open2300 v1.10,2013-11-11 07:11:00,
2013-11-11 02:21:00,37.2,30.0,30.26,NNE,22,0.0,-999.0,75,0.00,,,0.00,open2300 v1.10,2013-11-11 07:21:00,
2013-11-11 02:31:00,37.4,30.2,30.26,North,0,0.0,-999.0,75,0.00,,,0.00,open2300 v1.10,2013-11-11 07:31:00,
2013-11-11 02:41:00,37.8,30.5,30.26,North,0,0.0,-999.0,75,0.00,,,0.00,open2300 v1.10,2013-11-11 07:41:00,
2013-11-11 02:51:00,37.9,30.7,30.25,NNE,22,0.0,-999.0,75,0.00,,,0.00,open2300 v1.10,2013-11-11 07:51:00,
2013-11-11 03:01:00,38.1,30.9,30.25,North,0,0.0,-999.0,75,0.00,,,0.00,open2300 v1.10,2013-11-11 08:01:00,
2013-11-11 03:11:00,38.3,30.7,30.24,North,0,0.0,-999.0,74,0.00,,,0.00,open2300 v1.10,2013-11-11 08:11:00,
2013-11-11 03:21:00,38.7,31.0,30.24,NNE,22,0.0,-999.0,74,0.00,,,0.00,open2300 v1.10,2013-11-11 08:21:00,
2013-11-11 03:31:00,38.8,30.9,30.23,NNE,22,0.7,-999.0,73,0.00,,,0.00,open2300 v1.10,2013-11-11 08:31:00,
2013-11-11 03:41:00,38.8,31.2,30.23,NNE,22,0.0,-999.0,74,0.00,,,0.00,open2300 v1.10,2013-11-11 08:41:00,
2013-11-11 03:51:00,38.8,31.2,30.23,NNE,22,0.0,-999.0,74,0.00,,,0.00,open2300 v1.10,2013-11-11 08:51:00,
2013-11-11 04:01:00,39.0,31.0,30.22,North,0,0.0,-999.0,73,0.00,,,0.00,open2300 v1.10,2013-11-11 09:01:00,
2013-11-11 04:11:00,39.4,31.0,30.22,NNE,22,0.0,-999.0,72,0.00,,,0.00,open2300 v1.10,2013-11-11 09:11:00,
2013-11-11 04:21:00,39.4,31.0,30.21,NNE,22,0.0,-999.0,72,0.00,,,0.00,open2300 v1.10,2013-11-11 09:21:00,
2013-11-11 04:31:00,39.6,31.6,30.21,North,0,0.7,-999.0,73,0.00,,,0.00,open2300 v1.10,2013-11-11 09:31:00,
2013-11-11 04:41:00,39.7,31.4,30.20,NNE,22,1.1,-999.0,72,0.00,,,0.00,open2300 v1.10,2013-11-11 09:41:00,
2013-11-11 04:51:00,40.1,31.8,30.19,NNE,22,0.0,-999.0,72,0.00,,,0.00,open2300 v1.10,2013-11-11 09:51:00,
2013-11-11 05:01:00,40.6,32.0,30.20,NNE,22,1.6,-999.0,71,0.00,,,0.00,open2300 v1.10,2013-11-11 10:01:00,
2013-11-11 05:11:00,40.8,31.8,30.20,NNE,22,0.0,-999.0,70,0.00,,,0.00,open2300 v1.10,2013-11-11 10:11:00,
2013-11-11 05:21:00,41.0,32.0,30.20,NNE,22,6.3,-999.0,70,0.00,,,0.00,open2300 v1.10,2013-11-11 10:21:00,
2013-11-11 05:31:00,41.0,32.0,30.20,North,0,0.0,-999.0,70,0.00,,,0.00,open2300 v1.10,2013-11-11 10:31:00,
2013-11-11 05:41:00,41.2,32.2,30.20,NNE,22,0.7,-999.0,70,0.00,,,0.00,open2300 v1.10,2013-11-11 10:41:00,
2013-11-11 05:51:00,41.2,32.2,30.20,North,0,0.0,-999.0,70,0.00,,,0.00,open2300 v1.10,2013-11-11 10:51:00,
2013-11-11 06:01:00,41.2,31.8,30.20,NNE,22,6.9,-999.0,69,0.00,,,0.00,open2300 v1.10,2013-11-11 11:01:00,
2013-11-11 06:11:00,41.2,31.8,30.19,NNE,22,11.4,-999.0,69,0.00,,,0.00,open2300 v1.10,2013-11-11 11:11:00,
2013-11-11 06:21:00,41.2,31.8,30.19,North,0,0.0,-999.0,69,0.00,,,0.00,open2300 v1.10,2013-11-11 11:21:00,
2013-11-11 06:31:00,41.2,31.8,30.18,NNE,22,2.5,-999.0,69,0.00,,,0.00,open2300 v1.10,2013-11-11 11:31:00,
2013-11-11 06:41:00,41.2,31.8,30.18,North,0,2.5,-999.0,69,0.00,,,0.00,open2300 v1.10,2013-11-11 11:41:00,
2013-11-11 06:51:00,41.2,31.8,30.18,North,0,5.1,-999.0,69,0.00,,,0.00,open2300 v1.10,2013-11-11 11:51:00,
2013-11-11 07:01:00,41.4,32.0,30.18,NNE,22,4.7,-999.0,69,0.00,,,0.00,open2300 v1.10,2013-11-11 12:01:00,
2013-11-11 07:11:00,41.5,31.8,30.18,NNE,22,6.0,-999.0,68,0.00,,,0.00,open2300 v1.10,2013-11-11 12:11:00,
2013-11-11 07:21:00,41.7,32.0,30.18,NNE,22,0.0,-999.0,68,0.00,,,0.00,open2300 v1.10,2013-11-11 12:21:00,
2013-11-11 07:31:00,41.7,32.3,30.18,NNE,22,3.6,-999.0,69,0.00,,,0.00,open2300 v1.10,2013-11-11 12:31:00,
2013-11-11 07:41:00,41.7,32.3,30.17,NNE,22,0.0,-999.0,69,0.00,,,0.00,open2300 v1.10,2013-11-11 12:41:00,
2013-11-11 07:51:00,41.7,32.3,30.17,NNE,22,7.4,-999.0,69,0.00,,,0.00,open2300 v1.10,2013-11-11 12:51:00,
2013-11-11 08:01:00,41.7,32.3,30.17,NNE,22,1.6,-999.0,69,0.00,,,0.00,open2300 v1.10,2013-11-11 13:01:00,
2013-11-11 08:11:00,41.7,32.7,30.17,North,0,2.7,-999.0,70,0.00,,,0.00,open2300 v1.10,2013-11-11 13:11:00,
2013-11-11 08:21:00,41.7,32.7,30.17,North,0,6.9,-999.0,70,0.00,,,0.00,open2300 v1.10,2013-11-11 13:21:00,
2013-11-11 08:31:00,42.1,32.7,30.16,NNE,22,6.5,-999.0,69,0.00,,,0.00,open2300 v1.10,2013-11-11 13:31:00,
2013-11-11 08:41:00,42.4,33.0,30.16,North,0,2.5,-999.0,69,0.00,,,0.00,open2300 v1.10,2013-11-11 13:41:00,
2013-11-11 08:51:00,42.8,33.4,30.16,NNE,22,13.2,-999.0,69,0.00,,,0.00,open2300 v1.10,2013-11-11 13:51:00,
2013-11-11 09:01:00,43.2,33.3,30.16,North,0,4.2,-999.0,68,0.00,,,0.00,open2300 v1.10,2013-11-11 14:01:00,
2013-11-11 09:11:00,43.3,33.5,30.15,NNE,22,14.1,-999.0,68,0.00,,,0.00,open2300 v1.10,2013-11-11 14:11:00,
2013-11-11 09:21:00,43.9,33.6,30.15,NNE,22,6.9,-999.0,67,0.00,,,0.00,open2300 v1.10,2013-11-11 14:21:00,
2013-11-11 09:31:00,44.4,33.3,30.15,East,90,0.0,-999.0,65,0.00,,,0.00,open2300 v1.10,2013-11-11 14:31:00,
2013-11-11 09:41:00,45.0,33.9,30.15,NNE,22,0.0,-999.0,65,0.00,,,0.00,open2300 v1.10,2013-11-11 14:41:00,
2013-11-11 09:51:00,45.1,34.0,30.15,North,0,0.0,-999.0,65,0.00,,,0.00,open2300 v1.10,2013-11-11 14:51:00,
2013-11-11 10:01:00,45.3,34.2,30.15,NNE,22,4.9,-999.0,65,0.00,,,0.00,open2300 v1.10,2013-11-11 15:01:00,
2013-11-11 10:11:00,45.7,34.2,30.14,North,0,7.8,-999.0,64,0.00,,,0.00,open2300 v1.10,2013-11-11 15:11:00,
2013-11-11 10:21:00,46.2,34.7,30.14,NNE,22,1.8,-999.0,64,0.00,,,0.00,open2300 v1.10,2013-11-11 15:21:00,
2013-11-11 10:31:00,46.9,35.0,30.14,NNE,22,2.0,-999.0,63,0.00,,,0.00,open2300 v1.10,2013-11-11 15:31:00,
2013-11-11 10:41:00,47.1,35.1,30.14,NNE,22,7.6,-999.0,63,0.00,,,0.00,open2300 v1.10,2013-11-11 15:41:00,
2013-11-11 10:51:00,47.1,35.1,30.14,North,0,0.0,-999.0,63,0.00,,,0.00,open2300 v1.10,2013-11-11 15:51:00,
2013-11-11 11:01:00,47.1,35.1,30.13,NNE,22,7.2,-999.0,63,0.00,,,0.00,open2300 v1.10,2013-11-11 16:01:00,
2013-11-11 11:11:00,47.1,35.1,30.13,North,0,3.6,-999.0,63,0.00,,,0.00,open2300 v1.10,2013-11-11 16:11:00,
2013-11-11 11:21:00,47.1,35.1,30.13,North,0,0.0,-999.0,63,0.00,,,0.00,open2300 v1.10,2013-11-11 16:21:00,
2013-11-11 11:31:00,47.1,35.5,30.13,North,0,7.8,-999.0,64,0.00,,,0.00,open2300 v1.10,2013-11-11 16:31:00,
2013-11-11 11:41:00,47.7,36.0,30.13,NNE,22,2.0,-999.0,64,0.00,,,0.00,open2300 v1.10,2013-11-11 16:41:00,
2013-11-11 11:51:00,48.0,36.4,30.14,North,0,0.0,-999.0,64,0.00,,,0.00,open2300 v1.10,2013-11-11 16:51:00,
2013-11-11 12:01:00,48.6,36.9,30.13,North,0,0.0,-999.0,64,0.00,,,0.00,open2300 v1.10,2013-11-11 17:01:00,
2013-11-11 12:11:00,48.9,37.2,30.13,North,0,0.0,-999.0,64,0.00,,,0.00,open2300 v1.10,2013-11-11 17:11:00,
2013-11-11 12:21:00,49.3,37.6,30.13,North,0,0.0,-999.0,64,0.00,,,0.00,open2300 v1.10,2013-11-11 17:21:00,
2013-11-11 12:31:00,49.8,38.1,30.13,NNE,22,1.8,-999.0,64,0.00,,,0.00,open2300 v1.10,2013-11-11 17:31:00,
2013-11-11 12:41:00,50.0,38.3,30.12,North,0,0.0,-999.0,64,0.00,,,0.00,open2300 v1.10,2013-11-11 17:41:00,
2013-11-11 12:51:00,50.2,38.4,30.11,East,90,0.0,-999.0,64,0.00,,,0.00,open2300 v1.10,2013-11-11 17:51:00,
2013-11-11 13:01:00,50.2,38.8,30.12,North,0,0.0,-999.0,65,0.00,,,0.00,open2300 v1.10,2013-11-11 18:01:00,
2013-11-11 13:11:00,50.2,38.8,30.11,NNE,22,0.0,-999.0,65,0.00,,,0.00,open2300 v1.10,2013-11-11 18:11:00,
2013-11-11 13:21:00,50.4,39.0,30.10,NNE,22,0.0,-999.0,65,0.00,,,0.00,open2300 v1.10,2013-11-11 18:21:00,
2013-11-11 13:31:00,50.4,39.0,30.10,NNE,22,0.0,-999.0,65,0.00,,,0.00,open2300 v1.10,2013-11-11 18:31:00,
2013-11-11 13:41:00,50.4,39.0,30.10,North,0,3.4,-999.0,65,0.00,,,0.00,open2300 v1.10,2013-11-11 18:41:00,
2013-11-11 13:51:00,50.4,39.0,30.10,North,0,0.0,-999.0,65,0.00,,,0.00,open2300 v1.10,2013-11-11 18:51:00,
2013-11-11 14:01:00,50.4,39.0,30.10,NNE,22,0.0,-999.0,65,0.00,,,0.00,open2300 v1.10,2013-11-11 19:01:00,
2013-11-11 14:11:00,50.2,39.0,30.11,NNE,22,0.0,-999.0,65,0.00,,,0.00,open2300 v1.10,2013-11-11 19:11:00,
2013-11-11 14:21:00,50.2,39.2,30.10,NNE,22,0.0,-999.0,66,0.00,,,0.00,open2300 v1.10,2013-11-11 19:21:00,
2013-11-11 14:31:00,50.2,38.8,30.10,NNE,22,0.0,-999.0,65,0.00,,,0.00,open2300 v1.10,2013-11-11 19:31:00,
2013-11-11 14:41:00,49.6,38.3,30.11,North,0,3.1,-999.0,65,0.00,,,0.00,open2300 v1.10,2013-11-11 19:41:00,
2013-11-11 14:51:00,48.9,38.8,30.12,NNE,22,3.6,-999.0,68,0.00,,,0.00,open2300 v1.10,2013-11-11 19:51:00,
2013-11-11 15:01:00,47.7,39.0,30.12,North,0,6.9,-999.0,72,0.00,,,0.00,open2300 v1.10,2013-11-11 20:01:00,
2013-11-11 15:11:00,46.0,38.2,30.12,NNE,22,3.6,-999.0,74,0.00,,,0.00,open2300 v1.10,2013-11-11 20:11:00,
2013-11-11 15:21:00,45.1,38.3,30.13,North,0,0.0,-999.0,77,0.00,,,0.00,open2300 v1.10,2013-11-11 20:21:00,
2013-11-11 15:31:00,44.4,38.3,30.13,North,0,0.0,-999.0,79,0.00,,,0.00,open2300 v1.10,2013-11-11 20:31:00,
2013-11-11 15:41:00,44.4,38.7,30.14,North,0,7.8,-999.0,80,0.00,,,0.00,open2300 v1.10,2013-11-11 20:41:00,
2013-11-11 15:51:00,43.7,37.9,30.14,North,0,7.6,-999.0,80,0.00,,,0.00,open2300 v1.10,2013-11-11 20:51:00,
2013-11-11 16:01:00,43.0,37.5,30.14,NNE,22,2.7,-999.0,81,0.00,,,0.00,open2300 v1.10,2013-11-11 21:01:00,
2013-11-11 16:11:00,42.6,37.5,30.15,NNE,22,5.4,-999.0,82,0.00,,,0.00,open2300 v1.10,2013-11-11 21:11:00,
2013-11-11 16:21:00,42.6,37.8,30.15,NNE,22,3.1,-999.0,83,0.00,,,0.00,open2300 v1.10,2013-11-11 21:21:00,
2013-11-11 16:31:00,42.4,37.9,30.15,NNE,22,10.1,-999.0,84,0.00,,,0.00,open2300 v1.10,2013-11-11 21:31:00,
2013-11-11 16:41:00,42.1,37.5,30.15,NNE,22,6.5,-999.0,84,0.00,,,0.00,open2300 v1.10,2013-11-11 21:41:00,
2013-11-11 16:51:00,41.4,36.8,30.17,NNE,22,11.6,-999.0,84,0.00,,,0.00,open2300 v1.10,2013-11-11 21:51:00,
2013-11-11 17:01:00,40.3,35.8,30.18,NNE,22,4.5,-999.0,84,0.00,,,0.00,open2300 v1.10,2013-11-11 22:01:00,
2013-11-11 17:11:00,39.4,34.9,30.18,NNE,22,8.5,-999.0,84,0.00,,,0.00,open2300 v1.10,2013-11-11 22:11:00,
2013-11-11 17:21:00,39.0,34.9,30.18,NNE,22,6.7,-999.0,85,0.00,,,0.00,open2300 v1.10,2013-11-11 22:21:00,
2013-11-11 17:31:00,38.5,34.3,30.19,NNE,22,3.6,-999.0,85,0.00,,,0.00,open2300 v1.10,2013-11-11 22:31:00,
2013-11-11 17:41:00,37.9,34.1,30.19,NNE,22,8.9,-999.0,86,0.00,,,0.00,open2300 v1.10,2013-11-11 22:41:00,
2013-11-11 17:51:00,37.6,33.7,30.20,NNE,22,11.2,-999.0,86,0.00,,,0.00,open2300 v1.10,2013-11-11 22:51:00,
2013-11-11 18:01:00,37.4,33.5,30.21,NNE,22,12.8,-999.0,86,0.00,,,0.00,open2300 v1.10,2013-11-11 23:01:00,
2013-11-11 18:11:00,37.0,33.2,30.21,North,0,6.9,-999.0,86,0.00,,,0.00,open2300 v1.10,2013-11-11 23:11:00,
2013-11-11 18:21:00,36.5,32.7,30.21,NNE,22,10.7,-999.0,86,0.00,,,0.00,open2300 v1.10,2013-11-11 23:21:00,
2013-11-11 18:31:00,36.1,32.0,30.22,NNE,22,1.1,-999.0,85,0.00,,,0.00,open2300 v1.10,2013-11-11 23:31:00,
2013-11-11 18:41:00,35.8,31.9,30.23,NNE,22,12.5,-999.0,86,0.00,,,0.00,open2300 v1.10,2013-11-11 23:41:00,
2013-11-11 18:51:00,35.4,31.6,30.24,NNE,22,2.7,-999.0,86,0.00,,,0.00,open2300 v1.10,2013-11-11 23:51:00,
2013-11-11 19:01:00,34.9,31.0,30.25,NNE,22,11.9,-999.0,86,0.00,,,0.00,open2300 v1.10,2013-11-12 00:01:00,
2013-11-11 19:11:00,34.2,30.3,30.26,NNE,22,6.7,-999.0,86,0.00,,,0.00,open2300 v1.10,2013-11-12 00:11:00,
2013-11-11 19:21:00,33.6,29.8,30.27,North,0,7.6,-999.0,86,0.00,,,0.00,open2300 v1.10,2013-11-12 00:21:00,
2013-11-11 19:31:00,33.4,29.9,30.28,NNE,22,6.3,-999.0,87,0.00,,,0.00,open2300 v1.10,2013-11-12 00:31:00,
2013-11-11 19:41:00,33.3,29.8,30.28,NNE,22,11.6,-999.0,87,0.00,,,0.00,open2300 v1.10,2013-11-12 00:41:00,
2013-11-11 19:51:00,33.1,29.6,30.28,North,0,12.1,-999.0,87,0.00,,,0.00,open2300 v1.10,2013-11-12 00:51:00,
2013-11-11 20:01:00,32.7,29.5,30.29,NNE,22,6.3,-999.0,88,0.00,,,0.00,open2300 v1.10,2013-11-12 01:01:00,
2013-11-11 20:11:00,32.5,29.4,30.29,NNE,22,6.9,-999.0,88,0.00,,,0.00,open2300 v1.10,2013-11-12 01:11:00,
2013-11-11 20:21:00,32.4,29.2,30.30,NNE,22,0.0,-999.0,88,0.00,,,0.00,open2300 v1.10,2013-11-12 01:21:00,
2013-11-11 20:31:00,32.4,29.2,30.30,NNE,22,4.0,-999.0,88,0.00,,,0.00,open2300 v1.10,2013-11-12 01:31:00,
2013-11-11 20:41:00,32.4,29.2,30.31,NNE,22,5.6,-999.0,88,0.00,,,0.00,open2300 v1.10,2013-11-12 01:41:00,
2013-11-11 20:51:00,32.4,29.5,30.31,North,0,10.7,-999.0,89,0.00,,,0.00,open2300 v1.10,2013-11-12 01:51:00,
2013-11-11 21:01:00,32.2,29.4,30.31,NNE,22,0.0,-999.0,89,0.00,,,0.00,open2300 v1.10,2013-11-12 02:01:00,
2013-11-11 21:11:00,31.8,28.7,30.31,NNE,22,8.1,-999.0,88,0.00,,,0.00,open2300 v1.10,2013-11-12 02:11:00,
2013-11-11 21:21:00,31.8,28.7,30.33,NNE,22,6.5,-999.0,88,0.00,,,0.00,open2300 v1.10,2013-11-12 02:21:00,
2013-11-11 21:31:00,31.6,28.8,30.34,NNE,22,8.3,-999.0,89,0.02,,,0.02,open2300 v1.10,2013-11-12 02:31:00,
2013-11-11 21:41:00,31.3,28.5,30.34,NNE,22,8.5,-999.0,89,0.02,,,0.02,open2300 v1.10,2013-11-12 02:41:00,
2013-11-11 21:51:00,31.3,28.5,30.36,NNE,22,12.5,-999.0,89,0.02,,,0.02,open2300 v1.10,2013-11-12 02:51:00,
2013-11-11 22:01:00,31.1,28.3,30.36,North,0,10.7,-999.0,89,0.02,,,0.02,open2300 v1.10,2013-11-12 03:01:00,
2013-11-11 22:11:00,30.9,28.1,30.36,NNE,22,6.3,-999.0,89,0.02,,,0.02,open2300 v1.10,2013-11-12 03:11:00,
2013-11-11 22:21:00,30.7,27.9,30.36,NNE,22,2.5,-999.0,89,0.00,,,0.02,open2300 v1.10,2013-11-12 03:21:00,
2013-11-11 22:31:00,30.9,28.1,30.36,NNE,22,0.7,-999.0,89,0.00,,,0.02,open2300 v1.10,2013-11-12 03:31:00,
2013-11-11 22:41:00,30.9,28.1,30.37,NNE,22,2.9,-999.0,89,0.00,,,0.02,open2300 v1.10,2013-11-12 03:41:00,
2013-11-11 22:51:00,30.7,27.9,30.38,NNE,22,1.8,-999.0,89,0.00,,,0.02,open2300 v1.10,2013-11-12 03:51:00,
2013-11-11 23:01:00,30.7,27.9,30.38,NNE,22,4.7,-999.0,89,0.00,,,0.02,open2300 v1.10,2013-11-12 04:01:00,
2013-11-11 23:11:00,30.6,27.8,30.39,North,0,6.0,-999.0,89,0.00,,,0.02,open2300 v1.10,2013-11-12 04:11:00,
2013-11-11 23:21:00,30.2,27.4,30.39,North,0,6.3,-999.0,89,0.00,,,0.02,open2300 v1.10,2013-11-12 04:21:00,
2013-11-11 23:31:00,30.0,26.9,30.39,North,0,5.6,-999.0,88,0.00,,,0.02,open2300 v1.10,2013-11-12 04:31:00,
2013-11-11 23:41:00,29.7,26.3,30.40,North,0,10.3,-999.0,87,0.00,,,0.02,open2300 v1.10,2013-11-12 04:41:00,
2013-11-11 23:51:00,29.3,25.9,30.40,North,0,6.0,-999.0,87,0.00,,,0.02,open2300 v1.10,2013-11-12 04:51:00,